createdAt,value
2019-05-02T00:01:21.722Z,1.75
2019-05-02T00:03:51.001Z,1.55
2019-05-02T00:06:20.797Z,2.00
2019-05-02T00:08:50.052Z,2.15
2019-05-02T00:11:19.672Z,1.22
2019-05-02T00:13:49.206Z,2.02
2019-05-02T00:16:18.582Z,1.90
2019-05-02T00:18:47.798Z,1.70
2019-05-02T00:21:18.824Z,1.75
2019-05-02T00:23:48.148Z,1.30
2019-05-02T00:26:17.540Z,1.52
2019-05-02T00:28:49.875Z,2.52
2019-05-02T00:31:21.731Z,2.00
2019-05-02T00:33:51.072Z,1.85
2019-05-02T00:36:21.501Z,1.42
2019-05-02T00:38:50.844Z,2.40
2019-05-02T00:41:20.118Z,1.70
2019-05-02T00:43:49.344Z,1.70
2019-05-02T00:46:18.651Z,2.35
2019-05-02T00:48:54.021Z,1.95
2019-05-02T00:51:26.715Z,2.22
2019-05-02T00:53:56.486Z,1.55
2019-05-02T00:56:27.105Z,1.98
2019-05-02T00:58:56.439Z,1.87
2019-05-02T01:01:31.148Z,3.00
2019-05-02T01:04:08.025Z,2.62
2019-05-02T01:06:37.370Z,1.77
2019-05-02T01:09:11.020Z,1.55
2019-05-02T01:11:38.561Z,1.65
2019-05-02T01:14:07.917Z,2.12
2019-05-02T01:16:37.265Z,2.12
2019-05-02T01:19:06.507Z,1.92
2019-05-02T01:21:38.827Z,1.98
2019-05-02T01:24:06.907Z,1.40
2019-05-02T01:26:50.030Z,1.80
2019-05-02T01:29:24.840Z,2.08
2019-05-02T01:32:08.174Z,1.40
2019-05-02T01:34:49.090Z,1.85
2019-05-02T01:37:23.509Z,1.47
2019-05-02T01:39:52.810Z,2.15
2019-05-02T01:42:22.048Z,1.40
2019-05-02T01:44:51.460Z,2.25
2019-05-02T01:47:21.441Z,1.75
2019-05-02T01:49:56.755Z,1.57
2019-05-02T01:52:23.671Z,2.42
2019-05-02T01:54:53.689Z,2.08
2019-05-02T01:57:22.949Z,2.30
2019-05-02T01:59:53.850Z,1.70
2019-05-02T02:02:23.215Z,1.47
2019-05-02T02:04:56.826Z,1.67
2019-05-02T02:07:23.502Z,1.87
2019-05-02T02:09:52.821Z,1.45
2019-05-02T02:12:22.129Z,1.98
2019-05-02T02:14:53.473Z,3.05
2019-05-02T02:17:22.370Z,2.22
2019-05-02T02:19:55.721Z,2.45
2019-05-02T02:22:44.805Z,1.35
2019-05-02T02:25:26.290Z,1.70
2019-05-02T02:27:59.598Z,1.95
2019-05-02T02:30:26.613Z,1.60
2019-05-02T02:33:00.744Z,2.02
2019-05-02T02:35:26.950Z,1.85
2019-05-02T02:37:56.681Z,1.80
2019-05-02T02:40:32.779Z,2.17
2019-05-02T02:42:58.086Z,1.57
2019-05-02T02:45:39.125Z,1.90
2019-05-02T02:48:08.375Z,1.55
2019-05-02T02:50:43.011Z,1.60
2019-05-02T02:53:08.508Z,1.70
2019-05-02T02:55:37.802Z,2.25
2019-05-02T02:58:07.458Z,1.85
2019-05-02T03:00:41.513Z,2.05
2019-05-02T03:03:07.596Z,2.25
2019-05-02T03:05:36.827Z,2.20
2019-05-02T03:08:07.254Z,1.80
2019-05-02T03:10:39.927Z,1.92
2019-05-02T03:13:27.185Z,1.52
2019-05-02T03:16:00.457Z,2.40
2019-05-02T03:18:39.896Z,1.77
2019-05-02T03:20:59.820Z,2.20
2019-05-02T03:23:29.180Z,1.45
2019-05-02T03:25:58.405Z,1.90
2019-05-02T03:28:27.683Z,1.75
2019-05-02T03:30:56.916Z,2.08
2019-05-02T03:33:26.265Z,2.05
2019-05-02T03:35:55.570Z,1.80
2019-05-02T03:38:32.567Z,2.20
2019-05-02T03:40:55.727Z,3.00
2019-05-02T03:43:27.558Z,2.27
2019-05-02T03:45:56.362Z,1.35
2019-05-02T03:48:27.789Z,1.70
2019-05-02T03:50:56.947Z,1.90
2019-05-02T03:53:27.748Z,2.27
2019-05-02T03:55:58.138Z,1.87
2019-05-02T03:58:27.706Z,2.20
2019-05-02T04:01:01.514Z,1.77
2019-05-02T04:03:33.864Z,1.45
2019-05-02T04:06:00.342Z,2.02
2019-05-02T04:08:29.672Z,1.80
2019-05-02T04:11:09.363Z,1.92
2019-05-02T04:13:38.678Z,2.35
2019-05-02T04:16:14.735Z,2.00
2019-05-02T04:18:39.143Z,2.55
2019-05-02T04:21:08.768Z,1.90
2019-05-02T04:23:38.206Z,1.82
2019-05-02T04:26:12.689Z,2.30
2019-05-02T04:28:38.731Z,2.30
2019-05-02T04:31:08.134Z,1.87
2019-05-02T04:33:37.552Z,2.90
2019-05-02T04:36:13.570Z,3.10
2019-05-02T04:38:46.855Z,2.22
2019-05-02T04:41:09.806Z,2.15
2019-05-02T04:43:40.537Z,2.67
2019-05-02T04:46:18.040Z,2.85
2019-05-02T04:48:48.302Z,2.60
2019-05-02T04:51:16.376Z,3.00
2019-05-02T04:53:45.405Z,1.85
2019-05-02T04:56:13.603Z,1.87
2019-05-02T04:58:42.830Z,2.85
2019-05-02T05:01:12.065Z,3.20
2019-05-02T05:03:41.330Z,2.55
2019-05-02T05:06:12.304Z,2.10
2019-05-02T05:08:41.798Z,2.60
2019-05-02T05:11:13.945Z,2.75
2019-05-02T05:13:42.258Z,2.65
2019-05-02T05:16:15.472Z,3.02
2019-05-02T05:18:43.978Z,3.95
2019-05-02T05:21:13.929Z,2.75
2019-05-02T05:23:51.701Z,2.58
2019-05-02T05:26:21.898Z,2.70
2019-05-02T05:28:52.797Z,1.98
2019-05-02T05:31:24.078Z,3.83
2019-05-02T05:33:54.589Z,6.15
2019-05-02T05:36:29.320Z,2.90
2019-05-02T05:38:54.948Z,4.42
2019-05-02T05:41:24.277Z,3.22
2019-05-02T05:43:57.385Z,3.80
2019-05-02T05:46:28.072Z,5.62
2019-05-02T05:48:58.278Z,3.60
2019-05-02T05:51:28.106Z,7.78
2019-05-02T05:54:02.762Z,4.72
2019-05-02T05:56:32.504Z,5.37
2019-05-02T05:58:59.323Z,11.53
2019-05-02T06:01:33.946Z,7.58
2019-05-02T06:03:59.951Z,5.95
2019-05-02T06:06:29.182Z,6.22
2019-05-02T06:08:58.418Z,9.05
2019-05-02T06:11:27.671Z,6.97
2019-05-02T06:13:56.904Z,6.55
2019-05-02T06:16:26.237Z,8.85
2019-05-02T06:18:55.540Z,6.50
2019-05-02T06:21:24.889Z,6.97
2019-05-02T06:23:54.134Z,7.55
2019-05-02T06:26:24.497Z,6.12
2019-05-02T06:28:53.748Z,7.03
2019-05-02T06:31:23.045Z,5.70
2019-05-02T06:33:52.277Z,5.42
2019-05-02T06:36:21.580Z,6.00
2019-05-02T06:38:52.247Z,5.97
2019-05-02T06:41:22.291Z,6.53
2019-05-02T06:43:52.091Z,5.12
2019-05-02T06:46:27.020Z,9.03
2019-05-02T06:48:52.539Z,5.20
2019-05-02T06:51:23.285Z,7.20
2019-05-02T06:53:53.588Z,5.92
2019-05-02T06:56:23.021Z,6.97
2019-05-02T06:58:52.360Z,10.00
2019-05-02T07:01:22.929Z,5.80
2019-05-02T07:03:52.296Z,8.23
2019-05-02T07:06:21.708Z,7.15
2019-05-02T07:08:50.951Z,7.05
2019-05-02T07:11:20.276Z,7.05
2019-05-02T07:13:49.537Z,7.83
2019-05-02T07:16:37.628Z,5.55
2019-05-02T07:19:07.903Z,7.97
2019-05-02T07:21:37.160Z,6.60
2019-05-02T07:24:06.470Z,6.28
2019-05-02T07:26:36.923Z,6.28
2019-05-02T07:29:06.212Z,6.35
2019-05-02T07:31:35.865Z,4.83
2019-05-02T07:34:08.062Z,6.53
2019-05-02T07:36:36.461Z,7.00
2019-05-02T07:39:09.621Z,5.20
2019-05-02T07:41:38.931Z,5.45
2019-05-02T07:44:08.253Z,5.28
2019-05-02T07:46:50.960Z,5.65
2019-05-02T07:49:09.497Z,5.28
2019-05-02T07:51:38.795Z,5.05
2019-05-02T07:54:08.038Z,3.50
2019-05-02T07:56:37.284Z,6.05
2019-05-02T07:59:06.554Z,4.92
2019-05-02T08:01:35.854Z,5.92
2019-05-02T08:04:11.140Z,4.55
2019-05-02T08:06:40.109Z,5.75
2019-05-02T08:09:09.232Z,6.80
2019-05-02T08:11:39.032Z,5.90
2019-05-02T08:14:08.296Z,5.25
2019-05-02T08:16:37.594Z,4.97
2019-05-02T08:19:06.960Z,5.30
2019-05-02T08:21:36.182Z,6.62
2019-05-02T08:24:05.467Z,5.15
2019-05-02T08:26:45.270Z,5.08
2019-05-02T08:29:14.987Z,4.60
2019-05-02T08:31:44.305Z,5.62
2019-05-02T08:34:15.030Z,4.17
2019-05-02T08:36:44.430Z,4.65
2019-05-02T08:39:14.534Z,6.12
2019-05-02T08:41:43.958Z,4.33
2019-05-02T08:44:16.714Z,4.10
2019-05-02T08:46:46.118Z,4.22
2019-05-02T08:49:18.853Z,5.00
2019-05-02T08:51:45.953Z,4.78
2019-05-02T08:54:15.245Z,5.10
2019-05-02T08:56:44.476Z,5.08
2019-05-02T08:59:13.713Z,4.00
2019-05-02T09:01:44.707Z,3.80
2019-05-02T09:04:13.855Z,4.97
2019-05-02T09:06:45.945Z,3.75
2019-05-02T09:09:14.066Z,3.95
2019-05-02T09:11:48.269Z,3.80
2019-05-02T09:14:14.165Z,3.80
2019-05-02T09:16:43.463Z,5.47
2019-05-02T09:19:13.478Z,3.25
2019-05-02T09:21:43.544Z,4.92
2019-05-02T09:24:18.794Z,4.85
2019-05-02T09:26:43.711Z,4.47
2019-05-02T09:29:12.957Z,3.98
2019-05-02T09:31:45.922Z,3.80
2019-05-02T09:34:17.100Z,3.37
2019-05-02T09:36:43.946Z,4.30
2019-05-02T09:39:13.232Z,4.28
2019-05-02T09:41:42.467Z,3.50
2019-05-02T09:44:14.550Z,4.20
2019-05-02T09:46:42.882Z,3.52
2019-05-02T09:49:16.398Z,3.92
2019-05-02T09:51:45.622Z,4.78
2019-05-02T09:54:14.983Z,5.17
2019-05-02T09:56:44.261Z,4.17
2019-05-02T09:59:26.833Z,3.92
2019-05-02T10:01:44.441Z,3.12
2019-05-02T10:04:13.680Z,3.15
2019-05-02T10:06:43.125Z,3.42
2019-05-02T10:09:13.581Z,3.80
2019-05-02T10:11:42.888Z,5.03
2019-05-02T10:14:12.122Z,5.25
2019-05-02T10:16:42.597Z,4.15
2019-05-02T10:19:13.560Z,3.95
2019-05-02T10:21:46.973Z,4.15
2019-05-02T10:24:14.435Z,3.05
2019-05-02T10:26:43.702Z,3.60
2019-05-02T10:29:12.950Z,4.58
2019-05-02T10:31:43.585Z,4.50
2019-05-02T10:34:16.209Z,4.17
2019-05-02T10:36:45.442Z,4.40
2019-05-02T10:39:15.849Z,6.03
2019-05-02T10:41:45.414Z,3.62
2019-05-02T10:44:14.703Z,4.50
2019-05-02T10:46:59.604Z,4.30
2019-05-02T10:49:32.101Z,4.50
2019-05-02T10:52:02.620Z,3.20
2019-05-02T10:54:33.690Z,4.80
2019-05-02T10:57:03.009Z,3.40
2019-05-02T10:59:32.821Z,3.75
2019-05-02T11:02:22.328Z,4.03
2019-05-02T11:04:53.204Z,3.90
2019-05-02T11:07:26.211Z,4.25
2019-05-02T11:09:57.281Z,3.40
2019-05-02T11:12:40.726Z,3.52
2019-05-02T11:15:02.290Z,3.50
2019-05-02T11:17:36.256Z,4.30
2019-05-02T11:20:08.357Z,4.95
2019-05-02T11:22:37.640Z,3.80
2019-05-02T11:25:07.264Z,3.12
2019-05-02T11:27:36.493Z,3.60
2019-05-02T11:30:12.164Z,3.30
2019-05-02T11:32:41.750Z,4.03
2019-05-02T11:35:12.207Z,3.08
2019-05-02T11:37:42.237Z,4.42
2019-05-02T11:40:12.845Z,4.20
2019-05-02T11:42:42.295Z,4.47
2019-05-02T11:45:12.103Z,3.80
2019-05-02T11:47:42.692Z,3.58
2019-05-02T11:50:12.014Z,4.20
2019-05-02T11:52:42.386Z,4.40
2019-05-02T11:55:12.915Z,4.28
2019-05-02T11:57:43.441Z,2.37
2019-05-02T12:00:12.778Z,4.30
2019-05-02T12:02:43.660Z,2.92
2019-05-02T12:05:22.145Z,3.87
2019-05-02T12:07:52.645Z,4.55
2019-05-02T12:10:22.183Z,4.50
2019-05-02T12:12:52.674Z,4.05
2019-05-02T12:15:22.402Z,3.52
2019-05-02T12:17:52.970Z,3.20
2019-05-02T12:20:22.766Z,3.00
2019-05-02T12:22:52.801Z,3.60
2019-05-02T12:25:22.408Z,3.60
2019-05-02T12:27:52.735Z,3.55
2019-05-02T12:30:22.865Z,2.42
2019-05-02T12:32:53.796Z,3.27
2019-05-02T12:35:23.057Z,3.25
2019-05-02T12:37:55.146Z,4.15
2019-05-02T12:40:23.202Z,4.05
2019-05-02T12:42:52.635Z,4.00
2019-05-02T12:45:22.015Z,3.50
2019-05-02T12:47:52.272Z,3.65
2019-05-02T12:50:22.587Z,3.10
2019-05-02T12:52:54.060Z,3.00
2019-05-02T12:55:23.112Z,4.42
2019-05-02T12:57:52.452Z,2.95
2019-05-02T13:00:22.996Z,3.15
2019-05-02T13:03:01.953Z,4.15
2019-05-02T13:05:31.751Z,4.15
2019-05-02T13:08:02.613Z,4.53
2019-05-02T13:10:55.844Z,4.65
2019-05-02T13:13:22.481Z,3.95
2019-05-02T13:15:51.936Z,5.22
2019-05-02T13:18:27.309Z,4.15
2019-05-02T13:20:54.640Z,3.65
2019-05-02T13:23:37.125Z,4.37
2019-05-02T13:26:10.589Z,3.05
2019-05-02T13:28:37.945Z,3.00
2019-05-02T13:31:22.303Z,3.47
2019-05-02T13:33:59.135Z,3.58
2019-05-02T13:36:42.813Z,3.20
2019-05-02T13:39:24.207Z,3.77
2019-05-02T13:41:53.481Z,3.02
2019-05-02T13:44:24.973Z,3.55
2019-05-02T13:46:54.314Z,3.50
2019-05-02T13:49:23.666Z,3.15
2019-05-02T13:51:53.029Z,3.75
2019-05-02T13:54:22.320Z,3.55
2019-05-02T13:56:53.885Z,3.62
2019-05-02T13:59:23.149Z,3.70
2019-05-02T14:01:53.382Z,4.53
2019-05-02T14:04:24.259Z,4.25
2019-05-02T14:06:54.914Z,4.90
2019-05-02T14:09:27.002Z,7.00
2019-05-02T14:11:57.872Z,4.70
2019-05-02T14:14:27.337Z,5.92
2019-05-02T14:16:57.974Z,4.58
2019-05-02T14:19:28.295Z,4.80
2019-05-02T14:21:57.572Z,5.97
2019-05-02T14:24:26.829Z,4.92
2019-05-02T14:26:56.207Z,3.65
2019-05-02T14:29:25.593Z,4.65
2019-05-02T14:31:55.000Z,4.72
2019-05-02T14:34:35.004Z,4.85
2019-05-02T14:37:04.445Z,3.55
2019-05-02T14:39:33.780Z,3.47
2019-05-02T14:42:03.086Z,4.20
2019-05-02T14:45:00.354Z,4.65
2019-05-02T14:47:03.416Z,4.17
2019-05-02T14:49:32.645Z,3.62
2019-05-02T14:52:06.742Z,4.55
2019-05-02T14:54:32.786Z,4.08
2019-05-02T14:57:11.775Z,3.25
2019-05-02T14:59:42.707Z,2.77
2019-05-02T15:02:13.263Z,4.97
2019-05-02T15:04:44.609Z,9.15
2019-05-02T15:07:17.718Z,4.53
2019-05-02T15:09:44.261Z,4.62
2019-05-02T15:12:15.836Z,3.95
2019-05-02T15:14:44.424Z,4.15
2019-05-02T15:17:13.706Z,4.10
2019-05-02T15:19:42.941Z,4.17
2019-05-02T15:22:12.501Z,3.90
2019-05-02T15:24:42.374Z,3.75
2019-05-02T15:27:17.363Z,3.87
2019-05-02T15:29:42.783Z,3.77
2019-05-02T15:32:21.932Z,3.15
2019-05-02T15:34:58.175Z,3.92
2019-05-02T15:37:28.037Z,3.35
2019-05-02T15:42:28.204Z,3.37
2019-05-02T15:45:01.908Z,3.70
2019-05-02T15:47:28.356Z,3.10
2019-05-02T15:49:57.649Z,2.90
2019-05-02T15:52:32.663Z,3.85
2019-05-02T15:55:05.204Z,4.72
2019-05-02T15:57:42.997Z,2.90
2019-05-02T16:00:07.457Z,3.50
2019-05-02T16:02:37.246Z,3.02
2019-05-02T16:05:07.179Z,3.40
2019-05-02T16:07:38.011Z,3.33
2019-05-02T16:10:08.761Z,2.67
2019-05-02T16:15:18.102Z,3.47
2019-05-02T16:17:42.338Z,2.90
2019-05-02T16:20:14.251Z,2.92
2019-05-02T16:22:47.852Z,2.80
2019-05-02T16:25:15.654Z,3.40
2019-05-02T16:27:48.766Z,3.10
2019-05-02T16:30:22.165Z,2.37
2019-05-02T16:32:55.507Z,2.65
2019-05-02T16:35:29.497Z,2.15
2019-05-02T16:37:58.805Z,2.37
2019-05-02T16:40:31.872Z,3.05
2019-05-02T16:42:59.220Z,2.62
2019-05-02T16:45:28.531Z,3.00
2019-05-02T16:48:00.489Z,2.55
2019-05-02T16:50:35.174Z,2.45
2019-05-02T16:52:59.547Z,3.12
2019-05-02T16:55:29.040Z,2.35
2019-05-02T16:58:02.761Z,2.77
2019-05-02T17:00:29.249Z,1.98
2019-05-02T17:02:58.488Z,6.30
2019-05-02T17:05:27.736Z,3.17
2019-05-02T17:07:58.623Z,2.58
2019-05-02T17:10:34.840Z,2.58
2019-05-02T17:13:03.342Z,3.02
2019-05-02T17:15:35.239Z,2.65
2019-05-02T17:18:12.872Z,2.52
2019-05-02T17:20:36.581Z,2.75
2019-05-02T17:23:07.498Z,2.95
2019-05-02T17:25:36.719Z,3.25
2019-05-02T17:28:09.994Z,2.95
2019-05-02T17:30:39.000Z,2.60
2019-05-02T17:33:12.913Z,3.30
2019-05-02T17:35:43.428Z,2.55
2019-05-02T17:38:09.569Z,1.92
2019-05-02T17:40:38.807Z,2.30
2019-05-02T17:43:08.043Z,2.95
2019-05-02T17:45:38.596Z,2.62
2019-05-02T17:48:15.854Z,2.52
2019-05-02T17:50:49.339Z,2.80
2019-05-02T17:53:18.049Z,2.35
2019-05-02T17:55:47.312Z,3.55
2019-05-02T17:58:16.781Z,1.70
2019-05-02T18:00:51.609Z,2.05
2019-05-02T18:03:18.532Z,1.75
2019-05-02T18:05:47.765Z,2.47
2019-05-02T18:08:17.054Z,3.95
2019-05-02T18:10:50.509Z,1.75
2019-05-02T18:13:17.183Z,2.55
2019-05-02T18:15:46.430Z,2.67
2019-05-02T18:18:15.723Z,1.80
2019-05-02T18:20:46.601Z,2.58
2019-05-02T18:23:18.788Z,2.08
2019-05-02T18:25:46.808Z,2.77
2019-05-02T18:28:24.595Z,2.98
2019-05-02T18:30:50.169Z,1.82
2019-05-02T18:33:19.930Z,2.08
2019-05-02T18:35:49.319Z,2.17
2019-05-02T18:38:20.914Z,1.72
2019-05-02T18:40:49.433Z,2.52
2019-05-02T18:43:18.671Z,2.42
2019-05-02T18:45:47.955Z,1.98
2019-05-02T18:48:17.201Z,2.70
2019-05-02T18:50:49.822Z,1.90
2019-05-02T18:53:18.624Z,2.83
2019-05-02T18:55:48.428Z,3.52
2019-05-02T18:58:17.692Z,2.00
2019-05-02T19:00:46.941Z,2.27
2019-05-02T19:03:17.241Z,1.72
2019-05-02T19:05:46.808Z,2.75
2019-05-02T19:08:27.582Z,2.77
2019-05-02T19:11:04.004Z,2.00
2019-05-02T19:13:17.990Z,3.37
2019-05-02T19:15:48.920Z,1.82
2019-05-02T19:18:19.611Z,2.20
2019-05-02T19:20:56.809Z,1.82
2019-05-02T19:23:22.621Z,1.60
2019-05-02T19:25:52.818Z,2.33
2019-05-02T19:28:29.057Z,2.27
2019-05-02T19:31:02.930Z,2.40
2019-05-02T19:33:31.864Z,1.87
2019-05-02T19:36:02.805Z,2.12
2019-05-02T19:38:34.765Z,2.00
2019-05-02T19:41:08.849Z,1.80
2019-05-02T19:43:40.335Z,2.00
2019-05-02T19:46:07.397Z,1.90
2019-05-02T19:48:37.413Z,1.35
2019-05-02T19:51:10.583Z,3.47
2019-05-02T19:53:39.046Z,1.20
2019-05-02T19:56:08.404Z,1.30
2019-05-02T19:58:42.630Z,2.33
2019-05-02T20:01:08.655Z,1.75
2019-05-02T20:03:37.928Z,3.55
2019-05-02T20:06:07.430Z,2.22
2019-05-02T20:08:36.684Z,2.08
2019-05-02T20:11:05.929Z,1.92
2019-05-02T20:13:35.290Z,1.52
2019-05-02T20:16:13.495Z,2.75
2019-05-02T20:18:47.104Z,1.72
2019-05-02T20:21:26.881Z,1.85
2019-05-02T20:23:52.470Z,2.10
2019-05-02T20:26:22.190Z,1.72
2019-05-02T20:28:52.805Z,1.92
2019-05-02T20:31:22.286Z,1.70
2019-05-02T20:33:52.787Z,2.80
2019-05-02T20:36:23.220Z,3.22
2019-05-02T20:38:52.647Z,1.62
2019-05-02T20:41:22.429Z,1.70
2019-05-02T20:43:51.877Z,2.42
2019-05-02T20:46:21.872Z,1.42
2019-05-02T20:48:52.579Z,1.52
2019-05-02T20:51:22.763Z,2.02
2019-05-02T20:53:52.613Z,1.70
2019-05-02T20:56:23.038Z,2.25
2019-05-02T20:58:53.639Z,2.42
2019-05-02T21:01:22.926Z,2.30
2019-05-02T21:03:52.297Z,1.37
2019-05-02T21:06:38.535Z,2.30
2019-05-02T21:09:02.230Z,1.65
2019-05-02T21:11:33.329Z,1.85
2019-05-02T21:14:02.580Z,1.85
2019-05-02T21:16:32.239Z,1.92
2019-05-02T21:19:02.190Z,2.00
2019-05-02T21:21:32.649Z,1.55
2019-05-02T21:24:02.128Z,2.02
2019-05-02T21:26:32.883Z,1.82
2019-05-02T21:29:02.287Z,2.67
2019-05-02T21:31:31.910Z,1.60
2019-05-02T21:34:02.603Z,2.00
2019-05-02T21:36:32.077Z,1.75
2019-05-02T21:39:02.751Z,2.00
2019-05-02T21:41:33.971Z,1.55
2019-05-02T21:44:03.286Z,1.77
2019-05-02T21:46:32.525Z,1.90
2019-05-02T21:49:03.946Z,1.37
2019-05-02T21:51:40.268Z,1.82
2019-05-02T21:54:19.801Z,1.60
2019-05-02T21:57:02.730Z,2.25
2019-05-02T21:59:32.013Z,2.25
2019-05-02T22:02:02.449Z,2.05
2019-05-02T22:04:31.884Z,1.40
2019-05-02T22:07:01.172Z,2.40
2019-05-02T22:09:32.167Z,1.40
2019-05-02T22:12:01.290Z,1.67
2019-05-02T22:14:32.691Z,1.80
2019-05-02T22:17:02.251Z,1.30
2019-05-02T22:19:32.321Z,2.40
2019-05-02T22:22:01.884Z,1.98
2019-05-02T22:24:31.145Z,1.65
2019-05-02T22:27:01.953Z,2.70
2019-05-02T22:29:32.453Z,1.50
2019-05-02T22:32:02.978Z,2.15
2019-05-02T22:34:32.781Z,2.00
2019-05-02T22:37:02.820Z,2.17
2019-05-02T22:39:48.553Z,1.10
2019-05-02T22:42:17.897Z,1.50
2019-05-02T22:44:48.429Z,1.60
2019-05-02T22:47:17.655Z,2.20
2019-05-02T22:49:46.918Z,1.20
2019-05-02T22:52:16.147Z,1.47
2019-05-02T22:54:45.399Z,2.00
2019-05-02T22:57:14.653Z,2.33
2019-05-02T22:59:44.318Z,1.62
2019-05-02T23:02:14.219Z,1.57
2019-05-02T23:04:43.445Z,2.20
2019-05-02T23:07:12.770Z,1.80
2019-05-02T23:09:43.734Z,1.60
2019-05-02T23:12:13.234Z,2.08
2019-05-02T23:14:42.632Z,1.62
2019-05-02T23:17:12.687Z,1.95
2019-05-02T23:19:42.447Z,1.30
2019-05-02T23:22:12.765Z,2.25
2019-05-02T23:24:52.530Z,2.15
2019-05-02T23:27:39.667Z,2.72
2019-05-02T23:30:11.560Z,1.85
2019-05-02T23:32:42.357Z,2.30
2019-05-02T23:35:12.397Z,1.17
2019-05-02T23:37:42.225Z,1.50
2019-05-02T23:40:12.468Z,1.77
2019-05-02T23:42:41.857Z,1.35
2019-05-02T23:45:12.158Z,1.57
2019-05-02T23:47:42.213Z,1.87
2019-05-02T23:50:12.918Z,1.55
2019-05-02T23:52:42.172Z,2.08
2019-05-02T23:55:12.246Z,2.55
2019-05-02T23:57:42.157Z,1.87
